createdAt,value
2023-05-22T00:01:04.781Z,96135.91
2023-05-22T00:03:31.279Z,96131.41
2023-05-22T00:05:58.844Z,96141.84
2023-05-22T00:08:28.714Z,96129.38
2023-05-22T00:10:56.259Z,96126.72
2023-05-22T00:13:22.741Z,96131.41
2023-05-22T00:15:49.552Z,96129.34
2023-05-22T00:18:16.056Z,96132.81
2023-05-22T00:20:42.514Z,96132.81
2023-05-22T00:23:13.053Z,96129.56
2023-05-22T00:25:41.354Z,96134.03
2023-05-22T00:28:07.982Z,96133.44
2023-05-22T00:30:34.414Z,96135.91
2023-05-22T00:33:01.114Z,96138.34
2023-05-22T00:35:27.597Z,96143.25
2023-05-22T00:37:54.110Z,96133.84
2023-05-22T00:40:21.351Z,96131.38
2023-05-22T00:42:47.876Z,96144.69
2023-05-22T00:45:15.065Z,96135.44
2023-05-22T00:47:41.853Z,96142.75
2023-05-22T00:50:10.892Z,96144.59
2023-05-22T00:52:40.337Z,96144.91
2023-05-22T00:55:08.760Z,96137.34
2023-05-22T00:57:38.171Z,96143.56
2023-05-22T01:00:06.207Z,96149.69
2023-05-22T01:02:33.083Z,96145.13
2023-05-22T01:04:59.772Z,96142.41
2023-05-22T01:07:26.205Z,96144.94
2023-05-22T01:09:52.708Z,96144.47
2023-05-22T01:12:44.910Z,96148.03
2023-05-22T01:15:41.173Z,96145.94
2023-05-22T01:18:19.749Z,96148.69
2023-05-22T01:21:06.618Z,96152.31
2023-05-22T01:24:04.425Z,96149.78
2023-05-22T01:26:36.167Z,96156.72
2023-05-22T01:29:57.038Z,96154.97
2023-05-22T01:32:26.049Z,96152.50
2023-05-22T01:34:56.557Z,96157.06
2023-05-22T01:37:24.159Z,96154.84
2023-05-22T01:39:51.818Z,96146.06
2023-05-22T01:42:19.067Z,96143.66
2023-05-22T01:44:46.004Z,96148.22
2023-05-22T01:47:12.443Z,96145.03
2023-05-22T01:49:39.759Z,96154.00
2023-05-22T01:52:26.792Z,96147.13
2023-05-22T01:55:05.051Z,96147.75
2023-05-22T01:57:37.425Z,96143.63
2023-05-22T02:00:11.554Z,96153.25
2023-05-22T02:02:41.163Z,96151.66
2023-05-22T02:05:11.194Z,96154.53
2023-05-22T02:07:39.496Z,96151.97
2023-05-22T02:10:09.508Z,96151.75
2023-05-22T02:12:36.489Z,96151.19
2023-05-22T02:15:03.507Z,96161.38
2023-05-22T02:17:30.024Z,96154.53
2023-05-22T02:19:56.491Z,96158.78
2023-05-22T02:22:22.978Z,96157.63
2023-05-22T02:24:50.152Z,96151.59
2023-05-22T02:27:17.227Z,96143.56
2023-05-22T02:29:43.659Z,96149.88
2023-05-22T02:32:10.135Z,96149.16
2023-05-22T02:34:37.832Z,96150.91
2023-05-22T02:37:04.618Z,96153.84
2023-05-22T02:39:31.092Z,96155.38
2023-05-22T02:41:57.535Z,96142.69
2023-05-22T02:44:23.942Z,96150.16
2023-05-22T02:46:50.415Z,96150.88
2023-05-22T02:49:16.893Z,96154.19
2023-05-22T02:51:47.442Z,96165.69
2023-05-22T02:54:15.779Z,96150.19
2023-05-22T02:56:43.366Z,96151.59
2023-05-22T02:59:10.045Z,96151.41
2023-05-22T03:01:36.737Z,96156.41
2023-05-22T03:04:03.324Z,96153.22
2023-05-22T03:06:30.454Z,96161.16
2023-05-22T03:08:56.909Z,96154.50
2023-05-22T03:11:23.370Z,96160.19
2023-05-22T03:13:49.935Z,96156.78
2023-05-22T03:16:16.536Z,96162.84
2023-05-22T03:18:43.126Z,96162.41
2023-05-22T03:21:09.543Z,96157.25
2023-05-22T03:23:35.907Z,96157.91
2023-05-22T03:26:02.276Z,96156.69
2023-05-22T03:28:28.661Z,96155.66
2023-05-22T03:30:55.079Z,96150.44
2023-05-22T03:33:21.597Z,96153.06
2023-05-22T03:35:48.004Z,96153.59
2023-05-22T03:38:14.442Z,96155.72
2023-05-22T03:40:41.156Z,96156.69
2023-05-22T03:43:07.741Z,96158.66
2023-05-22T03:45:34.158Z,96159.50
2023-05-22T03:48:00.778Z,96158.81
2023-05-22T03:50:27.192Z,96160.09
2023-05-22T03:52:53.590Z,96154.50
2023-05-22T03:55:20.015Z,96160.97
2023-05-22T03:57:46.408Z,96157.03
2023-05-22T04:00:13.571Z,96153.44
2023-05-22T04:02:40.092Z,96152.91
2023-05-22T04:05:08.098Z,96158.06
2023-05-22T04:07:34.578Z,96158.97
2023-05-22T04:10:00.964Z,96148.50
2023-05-22T04:12:27.331Z,96159.56
2023-05-22T04:14:53.721Z,96158.50
2023-05-22T04:17:20.076Z,96170.06
2023-05-22T04:19:46.436Z,96158.75
2023-05-22T04:22:12.830Z,96172.16
2023-05-22T04:24:39.725Z,96177.97
2023-05-22T04:27:06.517Z,96182.06
2023-05-22T04:29:36.162Z,96183.31
2023-05-22T04:32:02.607Z,96184.50
2023-05-22T04:34:30.072Z,96195.16
2023-05-22T04:36:56.450Z,96192.50
2023-05-22T04:39:26.063Z,96192.41
2023-05-22T04:41:52.698Z,96197.69
2023-05-22T04:44:22.727Z,96199.78
2023-05-22T04:46:50.156Z,96194.84
2023-05-22T04:49:16.623Z,96196.63
2023-05-22T04:51:43.061Z,96196.66
2023-05-22T04:54:09.440Z,96208.44
2023-05-22T04:56:37.157Z,96204.59
2023-05-22T04:59:04.641Z,96213.81
2023-05-22T05:01:32.894Z,96217.88
2023-05-22T05:03:59.766Z,96221.41
2023-05-22T05:06:26.153Z,96223.34
2023-05-22T05:08:52.827Z,96220.78
2023-05-22T05:11:19.234Z,96220.88
2023-05-22T05:13:45.677Z,96228.47
2023-05-22T05:16:12.158Z,96225.47
2023-05-22T05:18:38.798Z,96234.50
2023-05-22T05:21:05.213Z,96231.91
2023-05-22T05:23:31.584Z,96236.06
2023-05-22T05:25:57.985Z,96225.72
2023-05-22T05:28:24.421Z,96223.41
2023-05-22T05:30:50.876Z,96228.00
2023-05-22T05:33:17.244Z,96224.53
2023-05-22T05:35:43.666Z,96221.78
2023-05-22T05:38:10.140Z,96227.09
2023-05-22T05:40:36.596Z,96227.16
2023-05-22T05:43:03.485Z,96224.81
2023-05-22T05:45:30.175Z,96227.16
2023-05-22T05:47:56.689Z,96227.53
2023-05-22T05:50:23.077Z,96232.75
2023-05-22T05:52:49.466Z,96229.66
2023-05-22T05:55:16.686Z,96229.72
2023-05-22T05:57:43.118Z,96229.81
2023-05-22T06:00:11.565Z,96231.84
2023-05-22T06:02:38.225Z,96237.31
2023-05-22T06:05:05.301Z,96238.22
2023-05-22T06:07:32.141Z,96234.13
2023-05-22T06:09:58.924Z,96229.53
2023-05-22T06:12:25.308Z,96239.47
2023-05-22T06:14:51.689Z,96237.91
2023-05-22T06:17:18.092Z,96233.19
2023-05-22T06:19:44.524Z,96230.22
2023-05-22T06:22:11.087Z,96242.03
2023-05-22T06:24:37.462Z,96238.72
2023-05-22T06:27:03.961Z,96237.13
2023-05-22T06:29:30.363Z,96230.88
2023-05-22T06:31:56.926Z,96241.03
2023-05-22T06:34:23.459Z,96237.09
2023-05-22T06:36:52.566Z,96234.06
2023-05-22T06:39:18.965Z,96230.41
2023-05-22T06:41:45.468Z,96226.97
2023-05-22T06:44:12.856Z,96230.66
2023-05-22T06:46:39.388Z,96225.41
2023-05-22T06:49:06.076Z,96226.66
2023-05-22T06:51:32.892Z,96223.50
2023-05-22T06:53:59.570Z,96230.78
2023-05-22T06:56:25.990Z,96229.59
2023-05-22T06:58:52.375Z,96226.69
2023-05-22T07:01:19.105Z,96221.03
2023-05-22T07:03:45.674Z,96226.75
2023-05-22T07:06:12.240Z,96221.66
2023-05-22T07:08:38.742Z,96231.41
2023-05-22T07:11:07.416Z,96234.19
2023-05-22T07:13:33.860Z,96234.91
2023-05-22T07:16:00.352Z,96232.91
2023-05-22T07:18:26.785Z,96240.28
2023-05-22T07:20:53.306Z,96233.16
2023-05-22T07:23:19.696Z,96237.72
2023-05-22T07:25:46.085Z,96231.78
2023-05-22T07:28:12.515Z,96234.38
2023-05-22T07:30:39.448Z,96233.88
2023-05-22T07:33:06.308Z,96230.47
2023-05-22T07:35:32.796Z,96234.97
2023-05-22T07:37:59.180Z,96232.09
2023-05-22T07:40:26.552Z,96223.53
2023-05-22T07:42:53.371Z,96228.56
2023-05-22T07:45:20.048Z,96232.66
2023-05-22T07:47:46.571Z,96232.94
2023-05-22T07:50:12.991Z,96233.19
2023-05-22T07:52:39.358Z,96225.88
2023-05-22T07:55:07.663Z,96225.47
2023-05-22T07:57:36.146Z,96218.72
2023-05-22T08:00:10.172Z,96221.78
2023-05-22T08:02:36.696Z,96219.81
2023-05-22T08:05:04.393Z,96214.47
2023-05-22T08:07:32.851Z,96218.94
2023-05-22T08:09:59.416Z,96211.78
2023-05-22T08:12:25.829Z,96213.97
2023-05-22T08:14:52.435Z,96207.44
2023-05-22T08:17:18.881Z,96208.72
2023-05-22T08:19:46.188Z,96210.38
2023-05-22T08:22:12.692Z,96210.78
2023-05-22T08:24:39.340Z,96210.81
2023-05-22T08:27:05.948Z,96210.47
2023-05-22T08:29:32.502Z,96204.28
2023-05-22T08:32:00.335Z,96207.56
2023-05-22T08:34:28.277Z,96205.50
2023-05-22T08:36:54.675Z,96196.97
2023-05-22T08:39:21.188Z,96205.13
2023-05-22T08:41:47.809Z,96202.47
2023-05-22T08:44:14.276Z,96210.53
2023-05-22T08:46:45.278Z,96209.50
2023-05-22T08:49:13.131Z,96213.00
2023-05-22T08:51:42.166Z,96209.69
2023-05-22T08:54:09.774Z,96204.38
2023-05-22T08:56:42.707Z,96203.34
2023-05-22T08:59:12.774Z,96203.13
2023-05-22T09:01:39.367Z,96198.63
2023-05-22T09:04:05.847Z,96197.41
2023-05-22T09:06:32.521Z,96188.59
2023-05-22T09:09:03.175Z,96182.16
2023-05-22T09:11:29.663Z,96198.56
2023-05-22T09:14:12.218Z,96201.28
2023-05-22T09:16:51.349Z,96194.31
2023-05-22T09:19:17.943Z,96199.00
2023-05-22T09:21:44.645Z,96198.19
2023-05-22T09:24:11.351Z,96180.94
2023-05-22T09:26:41.130Z,96188.75
2023-05-22T09:29:08.055Z,96180.06
2023-05-22T09:31:42.691Z,96187.13
2023-05-22T09:34:11.070Z,96187.44
2023-05-22T09:36:37.467Z,96186.22
2023-05-22T09:39:04.681Z,96198.28
2023-05-22T09:41:35.772Z,96192.09
2023-05-22T09:44:06.768Z,96196.03
2023-05-22T09:46:40.213Z,96179.53
2023-05-22T09:49:06.683Z,96183.56
2023-05-22T09:51:35.681Z,96179.91
2023-05-22T09:54:07.775Z,96181.75
2023-05-22T09:56:39.701Z,96178.38
2023-05-22T09:59:09.268Z,96176.97
2023-05-22T10:01:37.373Z,96184.72
2023-05-22T10:04:04.648Z,96175.38
2023-05-22T10:06:33.831Z,96175.56
2023-05-22T10:09:06.951Z,96173.75
2023-05-22T10:11:34.218Z,96170.44
2023-05-22T10:14:02.578Z,96175.53
2023-05-22T10:16:30.143Z,96172.25
2023-05-22T10:18:57.520Z,96176.91
2023-05-22T10:21:25.297Z,96169.81
2023-05-22T10:23:52.254Z,96169.47
2023-05-22T10:26:19.766Z,96168.53
2023-05-22T10:28:52.753Z,96157.84
2023-05-22T10:31:30.004Z,96161.06
2023-05-22T10:34:02.739Z,96161.59
2023-05-22T10:37:18.016Z,96153.25
2023-05-22T10:39:58.414Z,96150.31
2023-05-22T10:42:29.605Z,96146.94
2023-05-22T10:44:55.981Z,96143.22
2023-05-22T10:47:22.472Z,96139.16
2023-05-22T10:49:50.676Z,96138.38
2023-05-22T10:52:21.705Z,96149.34
2023-05-22T10:54:53.375Z,96135.53
2023-05-22T10:57:20.555Z,96136.88
2023-05-22T10:59:47.505Z,96133.81
2023-05-22T11:02:31.358Z,96123.41
2023-05-22T11:05:22.693Z,96130.53
2023-05-22T11:07:49.225Z,96126.06
2023-05-22T11:10:26.028Z,96127.75
2023-05-22T11:13:29.342Z,96115.66
2023-05-22T11:15:57.542Z,96113.25
2023-05-22T11:18:28.218Z,96117.88
2023-05-22T11:20:55.745Z,96116.44
2023-05-22T11:23:25.174Z,96111.69
2023-05-22T11:25:51.615Z,96114.88
2023-05-22T11:28:18.018Z,96113.94
2023-05-22T11:30:44.700Z,96107.53
2023-05-22T11:33:12.646Z,96110.56
2023-05-22T11:35:39.860Z,96116.13
2023-05-22T11:38:07.020Z,96116.13
2023-05-22T11:40:33.838Z,96104.72
2023-05-22T11:43:00.492Z,96105.56
2023-05-22T11:45:26.999Z,96099.50
2023-05-22T11:47:53.466Z,96102.56
2023-05-22T11:52:50.013Z,96108.97
2023-05-22T11:55:16.391Z,96104.16
2023-05-22T11:57:43.145Z,96103.03
2023-05-22T12:00:10.629Z,96095.91
2023-05-22T12:02:37.205Z,96101.88
2023-05-22T12:05:04.486Z,96103.59
2023-05-22T12:07:31.541Z,96106.66
2023-05-22T12:09:58.839Z,96100.78
2023-05-22T12:12:25.800Z,96096.91
2023-05-22T12:14:52.947Z,96086.53
2023-05-22T12:17:19.406Z,96079.59
2023-05-22T12:19:48.749Z,96086.06
2023-05-22T12:22:15.188Z,96079.56
2023-05-22T12:24:45.911Z,96089.59
2023-05-22T12:27:13.471Z,96073.91
2023-05-22T12:29:40.961Z,96081.25
2023-05-22T12:32:12.219Z,96086.94
2023-05-22T12:34:46.420Z,96081.66
2023-05-22T12:37:25.290Z,96075.81
2023-05-22T12:39:59.482Z,96067.84
2023-05-22T12:42:27.211Z,96066.66
2023-05-22T12:44:55.916Z,96070.31
2023-05-22T12:47:23.674Z,96076.41
2023-05-22T12:49:50.871Z,96071.84
2023-05-22T12:52:17.384Z,96071.13
2023-05-22T12:54:43.806Z,96064.06
2023-05-22T12:57:10.320Z,96066.66
2023-05-22T12:59:39.406Z,96063.06
2023-05-22T13:02:06.183Z,96068.75
2023-05-22T13:04:32.924Z,96055.44
2023-05-22T13:06:59.393Z,96066.91
2023-05-22T13:09:25.849Z,96061.53
2023-05-22T13:11:52.427Z,96060.03
2023-05-22T13:14:18.907Z,96058.53
2023-05-22T13:16:45.414Z,96060.66
2023-05-22T13:19:11.858Z,96055.09
2023-05-22T13:21:38.349Z,96053.13
2023-05-22T13:24:04.828Z,96058.84
2023-05-22T13:26:31.205Z,96049.00
2023-05-22T13:28:57.589Z,96051.13
2023-05-22T13:31:24.028Z,96050.44
2023-05-22T13:33:50.585Z,96052.25
2023-05-22T13:36:18.067Z,96055.53
2023-05-22T13:38:44.534Z,96036.25
2023-05-22T13:41:11.268Z,96039.41
2023-05-22T13:43:37.643Z,96032.72
2023-05-22T13:46:04.372Z,96025.13
2023-05-22T13:48:31.088Z,96026.81
2023-05-22T13:50:57.619Z,96025.50
2023-05-22T13:53:24.011Z,96026.53
2023-05-22T13:55:50.976Z,96029.44
2023-05-22T13:58:17.379Z,96029.56
2023-05-22T14:00:43.796Z,96028.00
2023-05-22T14:03:11.640Z,96037.19
2023-05-22T14:05:38.384Z,96038.06
2023-05-22T14:08:05.021Z,96027.06
2023-05-22T14:10:31.381Z,96033.56
2023-05-22T14:12:57.769Z,96029.88
2023-05-22T14:15:24.402Z,96021.34
2023-05-22T14:17:50.933Z,96023.63
2023-05-22T14:20:17.514Z,96015.69
2023-05-22T14:22:56.427Z,96020.56
2023-05-22T14:25:24.467Z,96018.47
2023-05-22T14:27:51.008Z,95999.16
2023-05-22T14:30:17.597Z,96002.44
2023-05-22T14:32:44.090Z,96005.72
2023-05-22T14:35:10.971Z,95996.00
2023-05-22T14:37:37.395Z,95994.03
2023-05-22T14:40:04.716Z,95999.03
2023-05-22T14:42:31.126Z,95996.16
2023-05-22T14:44:58.022Z,96001.13
2023-05-22T14:47:24.669Z,95993.03
2023-05-22T14:49:51.678Z,95996.63
2023-05-22T14:52:19.132Z,95993.13
2023-05-22T14:54:45.819Z,95989.13
2023-05-22T14:57:12.309Z,95995.91
2023-05-22T14:59:38.705Z,95989.00
2023-05-22T15:02:05.365Z,95993.34
2023-05-22T15:04:31.759Z,95997.47
2023-05-22T15:06:58.173Z,95990.78
2023-05-22T15:09:24.566Z,95994.16
2023-05-22T15:11:51.118Z,95994.53
2023-05-22T15:14:17.882Z,95986.50
2023-05-22T15:16:44.471Z,95990.50
2023-05-22T15:19:11.159Z,95992.44
2023-05-22T15:21:37.732Z,95993.03
2023-05-22T15:24:04.493Z,95989.97
2023-05-22T15:26:31.004Z,95988.56
2023-05-22T15:29:01.363Z,95987.22
2023-05-22T15:31:31.533Z,95988.16
2023-05-22T15:33:58.150Z,95989.28
2023-05-22T15:36:24.545Z,95994.44
2023-05-22T15:38:50.971Z,95986.34
2023-05-22T15:41:17.423Z,95985.50
2023-05-22T15:43:44.459Z,95987.13
2023-05-22T15:46:14.299Z,95978.50
2023-05-22T15:48:40.833Z,95974.69
2023-05-22T15:51:09.524Z,95976.31
2023-05-22T15:53:36.058Z,95981.19
2023-05-22T15:56:02.716Z,95980.91
2023-05-22T15:58:30.119Z,95978.97
2023-05-22T16:00:56.832Z,95986.06
2023-05-22T16:03:23.419Z,95983.31
2023-05-22T16:05:49.959Z,95989.31
2023-05-22T16:08:16.850Z,95987.28
2023-05-22T16:10:44.393Z,95981.56
2023-05-22T16:13:11.129Z,95977.69
2023-05-22T16:15:39.891Z,95981.13
2023-05-22T16:18:07.267Z,95982.41
2023-05-22T16:20:35.096Z,95982.91
2023-05-22T16:23:01.811Z,95981.75
2023-05-22T16:25:28.199Z,95983.94
2023-05-22T16:27:54.599Z,95978.38
2023-05-22T16:30:21.175Z,95974.09
2023-05-22T16:32:48.498Z,95970.16
2023-05-22T16:35:15.698Z,95978.34
2023-05-22T16:37:42.140Z,95972.16
2023-05-22T16:40:11.773Z,95975.78
2023-05-22T16:42:38.335Z,95976.09
2023-05-22T16:45:07.114Z,95970.88
2023-05-22T16:47:33.656Z,95976.03
2023-05-22T16:50:00.371Z,95983.72
2023-05-22T16:52:26.878Z,95980.38
2023-05-22T16:54:53.683Z,95988.75
2023-05-22T16:57:20.064Z,95994.50
2023-05-22T16:59:46.640Z,96008.34
2023-05-22T17:02:13.558Z,96019.88
2023-05-22T17:04:40.908Z,96019.47
2023-05-22T17:07:07.353Z,96028.75
2023-05-22T17:09:33.958Z,96026.63
2023-05-22T17:12:00.484Z,96032.34
2023-05-22T17:14:26.864Z,96035.03
2023-05-22T17:16:54.233Z,96026.06
2023-05-22T17:19:21.321Z,96032.53
2023-05-22T17:21:47.896Z,96027.09
2023-05-22T17:24:14.906Z,96034.66
2023-05-22T17:26:41.632Z,96032.69
2023-05-22T17:29:08.797Z,96029.91
2023-05-22T17:31:36.820Z,96036.09
2023-05-22T17:34:05.384Z,96039.47
2023-05-22T17:36:32.296Z,96033.69
2023-05-22T17:39:01.592Z,96047.97
2023-05-22T17:41:28.062Z,96041.38
2023-05-22T17:43:56.930Z,96032.38
2023-05-22T17:46:23.352Z,96035.78
2023-05-22T17:48:49.798Z,96031.88
2023-05-22T17:51:16.249Z,96032.66
2023-05-22T17:53:42.659Z,96043.16
2023-05-22T17:56:09.272Z,96052.63
2023-05-22T17:58:35.757Z,96060.34
2023-05-22T18:01:02.191Z,96058.41
2023-05-22T18:03:28.807Z,96058.38
2023-05-22T18:05:55.273Z,96058.22
2023-05-22T18:08:21.808Z,96064.63
2023-05-22T18:10:48.929Z,96070.44
2023-05-22T18:13:15.433Z,96069.81
2023-05-22T18:15:41.971Z,96076.47
2023-05-22T18:18:09.995Z,96082.63
2023-05-22T18:20:38.189Z,96090.31
2023-05-22T18:23:04.663Z,96091.16
2023-05-22T18:25:31.037Z,96105.06
2023-05-22T18:27:57.423Z,96106.13
2023-05-22T18:30:23.794Z,96118.22
2023-05-22T18:32:50.342Z,96117.63
2023-05-22T18:35:17.016Z,96121.50
2023-05-22T18:37:43.478Z,96121.13
2023-05-22T18:40:10.857Z,96118.94
2023-05-22T18:42:37.288Z,96112.16
2023-05-22T18:45:05.520Z,96109.97
2023-05-22T18:47:32.150Z,96111.34
2023-05-22T18:49:58.544Z,96111.75
2023-05-22T18:52:24.917Z,96109.81
2023-05-22T18:54:51.307Z,96104.72
2023-05-22T18:57:17.798Z,96106.75
2023-05-22T18:59:45.962Z,96109.84
2023-05-22T19:02:12.413Z,96113.69
2023-05-22T19:04:38.986Z,96109.69
2023-05-22T19:07:05.443Z,96102.44
2023-05-22T19:09:31.883Z,96103.06
2023-05-22T19:11:58.281Z,96103.56
2023-05-22T19:14:24.677Z,96103.00
2023-05-22T19:16:51.222Z,96106.97
2023-05-22T19:19:17.877Z,96110.41
2023-05-22T19:21:44.377Z,96128.88
2023-05-22T19:24:10.921Z,96135.25
2023-05-22T19:26:37.326Z,96132.38
2023-05-22T19:29:03.791Z,96141.00
2023-05-22T19:31:30.359Z,96148.56
2023-05-22T19:33:56.865Z,96146.84
2023-05-22T19:36:23.270Z,96154.59
2023-05-22T19:38:50.699Z,96156.22
2023-05-22T19:41:19.005Z,96148.59
2023-05-22T19:43:45.728Z,96152.88
2023-05-22T19:46:12.122Z,96157.31
2023-05-22T19:48:38.613Z,96154.50
2023-05-22T19:51:05.184Z,96163.47
2023-05-22T19:53:32.515Z,96157.16
2023-05-22T19:55:58.991Z,96158.69
2023-05-22T19:58:25.587Z,96160.19
2023-05-22T20:00:52.460Z,96168.56
2023-05-22T20:03:20.338Z,96173.59
2023-05-22T20:05:47.170Z,96171.59
2023-05-22T20:08:14.143Z,96186.06
2023-05-22T20:10:41.107Z,96182.22
2023-05-22T20:13:07.712Z,96193.13
2023-05-22T20:15:34.304Z,96191.75
2023-05-22T20:18:02.506Z,96196.75
2023-05-22T20:20:29.152Z,96196.53
2023-05-22T20:22:55.622Z,96206.25
2023-05-22T20:25:22.188Z,96211.25
2023-05-22T20:27:49.032Z,96212.31
2023-05-22T20:30:15.896Z,96218.03
2023-05-22T20:32:45.420Z,96214.09
2023-05-22T20:35:13.095Z,96213.84
2023-05-22T20:37:40.918Z,96220.56
2023-05-22T20:40:09.216Z,96225.03
2023-05-22T20:42:39.171Z,96231.59
2023-05-22T20:45:06.150Z,96222.19
2023-05-22T20:47:37.556Z,96221.28
2023-05-22T20:50:04.415Z,96231.38
2023-05-22T20:52:30.813Z,96229.91
2023-05-22T20:54:57.855Z,96227.16
2023-05-22T20:57:25.121Z,96228.00
2023-05-22T20:59:54.828Z,96228.09
2023-05-22T21:02:21.393Z,96224.44
2023-05-22T21:04:47.777Z,96234.41
2023-05-22T21:07:14.136Z,96235.16
2023-05-22T21:09:40.679Z,96245.22
2023-05-22T21:12:07.449Z,96245.47
2023-05-22T21:14:33.833Z,96246.00
2023-05-22T21:17:00.383Z,96253.72
2023-05-22T21:19:26.904Z,96261.72
2023-05-22T21:21:53.365Z,96260.97
2023-05-22T21:24:20.717Z,96259.25
2023-05-22T21:26:47.129Z,96255.59
2023-05-22T21:29:13.496Z,96263.38
2023-05-22T21:31:39.945Z,96265.19
2023-05-22T21:34:06.380Z,96270.59
2023-05-22T21:36:32.739Z,96269.97
2023-05-22T21:39:00.357Z,96261.94
2023-05-22T21:41:27.602Z,96267.53
2023-05-22T21:43:54.021Z,96273.09
2023-05-22T21:46:22.479Z,96274.66
2023-05-22T21:48:49.074Z,96265.59
2023-05-22T21:51:15.808Z,96275.09
2023-05-22T21:53:42.495Z,96273.28
2023-05-22T21:56:09.245Z,96269.75
2023-05-22T21:58:35.662Z,96283.47
2023-05-22T22:01:02.079Z,96285.53
2023-05-22T22:03:28.567Z,96292.69
2023-05-22T22:05:55.049Z,96290.38
2023-05-22T22:08:21.442Z,96300.84
2023-05-22T22:10:47.830Z,96296.28
2023-05-22T22:13:14.295Z,96299.50
2023-05-22T22:15:40.680Z,96288.44
2023-05-22T22:18:07.088Z,96289.91
2023-05-22T22:20:44.342Z,96286.63
2023-05-22T22:23:11.641Z,96287.31
2023-05-22T22:25:39.174Z,96296.28
2023-05-22T22:28:05.990Z,96297.69
2023-05-22T22:30:32.583Z,96304.63
2023-05-22T22:32:59.311Z,96308.38
2023-05-22T22:35:25.905Z,96306.81
2023-05-22T22:37:52.326Z,96310.88
2023-05-22T22:40:19.012Z,96303.88
2023-05-22T22:42:45.393Z,96305.31
2023-05-22T22:45:11.811Z,96304.72
2023-05-22T22:47:38.967Z,96302.22
2023-05-22T22:50:05.702Z,96303.66
2023-05-22T22:52:32.120Z,96305.91
2023-05-22T22:54:58.547Z,96311.69
2023-05-22T22:57:25.074Z,96306.78
2023-05-22T22:59:51.514Z,96322.84
2023-05-22T23:02:17.914Z,96327.75
2023-05-22T23:04:44.382Z,96322.84
2023-05-22T23:07:11.046Z,96324.94
2023-05-22T23:09:37.705Z,96320.44
2023-05-22T23:12:06.244Z,96317.13
2023-05-22T23:14:32.628Z,96333.56
2023-05-22T23:16:59.013Z,96330.50
2023-05-22T23:19:25.393Z,96320.22
2023-05-22T23:21:51.841Z,96322.69
2023-05-22T23:24:18.256Z,96315.91
2023-05-22T23:26:44.670Z,96305.84
2023-05-22T23:29:11.105Z,96302.78
2023-05-22T23:31:37.532Z,96301.53
2023-05-22T23:34:03.996Z,96301.34
2023-05-22T23:36:30.793Z,96305.66
2023-05-22T23:38:57.447Z,96303.25
2023-05-22T23:41:24.741Z,96310.81
2023-05-22T23:43:51.214Z,96308.16
2023-05-22T23:46:17.912Z,96307.13
2023-05-22T23:48:44.378Z,96306.53
2023-05-22T23:51:14.317Z,96308.75
2023-05-22T23:53:41.857Z,96299.75
2023-05-22T23:56:08.993Z,96308.16
2023-05-22T23:58:35.662Z,96304.69
